sensor_id;sensor_type;location;lat;lon;timestamp;pressure;altitude;pressure_sealevel;temperature;humidity
44198;BME280;30157;55.512;37.764;2023-02-22T00:00:43;98566.47;;;-15.89;71.80
44198;BME280;30157;55.512;37.764;2023-02-22T00:03:23;98696.88;;;-15.22;71.81
44198;BME280;30157;55.512;37.764;2023-02-22T00:05:56;98701.00;;;-15.22;71.82
44198;BME280;30157;55.512;37.764;2023-02-22T00:08:29;98680.34;;;-15.31;71.54
44198;BME280;30157;55.512;37.764;2023-02-22T00:11:00;98550.78;;;-16.20;71.68
44198;BME280;30157;55.512;37.764;2023-02-22T00:13:27;98713.16;;;-15.15;71.53
44198;BME280;30157;55.512;37.764;2023-02-22T00:15:57;98729.47;;;-15.18;71.68
44198;BME280;30157;55.512;37.764;2023-02-22T00:18:24;98708.09;;;-15.27;71.75
44198;BME280;30157;55.512;37.764;2023-02-22T00:20:52;98634.69;;;-15.75;71.64
44198;BME280;30157;55.512;37.764;2023-02-22T00:23:20;98614.50;;;-15.90;72.18
44198;BME280;30157;55.512;37.764;2023-02-22T00:25:48;98740.03;;;-15.21;72.03
44198;BME280;30157;55.512;37.764;2023-02-22T00:28:15;98699.31;;;-15.44;72.12
44198;BME280;30157;55.512;37.764;2023-02-22T00:30:41;98591.50;;;-16.08;71.85
44198;BME280;30157;55.512;37.764;2023-02-22T00:33:12;98725.16;;;-15.31;72.37
44198;BME280;30157;55.512;37.764;2023-02-22T00:35:38;98752.50;;;-15.21;71.68
44198;BME280;30157;55.512;37.764;2023-02-22T00:38:04;98718.81;;;-15.38;72.02
44198;BME280;30157;55.512;37.764;2023-02-22T00:40:33;98737.72;;;-15.30;72.64
44198;BME280;30157;55.512;37.764;2023-02-22T00:43:01;98711.38;;;-15.48;72.43
44198;BME280;30157;55.512;37.764;2023-02-22T00:45:29;98742.59;;;-15.31;72.22
44198;BME280;30157;55.512;37.764;2023-02-22T00:47:55;98603.31;;;-16.15;71.95
44198;BME280;30157;55.512;37.764;2023-02-22T00:50:23;98756.78;;;-15.30;72.15
44198;BME280;30157;55.512;37.764;2023-02-22T00:52:50;98751.41;;;-15.35;72.73
44198;BME280;30157;55.512;37.764;2023-02-22T00:55:21;98757.91;;;-15.37;72.95
44198;BME280;30157;55.512;37.764;2023-02-22T00:57:47;98757.28;;;-15.45;73.21
44198;BME280;30157;55.512;37.764;2023-02-22T01:00:23;98746.81;;;-15.51;72.21
44198;BME280;30157;55.512;37.764;2023-02-22T01:02:50;98779.19;;;-15.41;72.67
44198;BME280;30157;55.512;37.764;2023-02-22T01:05:18;98785.00;;;-15.40;72.64
44198;BME280;30157;55.512;37.764;2023-02-22T01:07:46;98784.03;;;-15.42;72.41
44198;BME280;30157;55.512;37.764;2023-02-22T01:10:17;98755.41;;;-15.58;72.89
44198;BME280;30157;55.512;37.764;2023-02-22T01:12:44;98612.53;;;-16.45;72.57
44198;BME280;30157;55.512;37.764;2023-02-22T01:15:10;98643.13;;;-16.26;72.16
44198;BME280;30157;55.512;37.764;2023-02-22T01:17:37;98771.59;;;-15.52;72.79
44198;BME280;30157;55.512;37.764;2023-02-22T01:20:05;98760.91;;;-15.62;72.38
44198;BME280;30157;55.512;37.764;2023-02-22T01:22:41;98712.09;;;-16.02;72.40
44198;BME280;30157;55.512;37.764;2023-02-22T01:25:09;98751.63;;;-15.85;72.66
44198;BME280;30157;55.512;37.764;2023-02-22T01:27:35;98640.00;;;-16.54;72.73
44198;BME280;30157;55.512;37.764;2023-02-22T01:30:01;98785.03;;;-15.71;72.49
44198;BME280;30157;55.512;37.764;2023-02-22T01:32:35;98791.41;;;-15.75;72.62
44198;BME280;30157;55.512;37.764;2023-02-22T01:35:01;98817.75;;;-15.77;73.02
44198;BME280;30157;55.512;37.764;2023-02-22T01:37:30;98812.56;;;-15.80;72.98
44198;BME280;30157;55.512;37.764;2023-02-22T01:39:56;98767.78;;;-16.11;72.55
44198;BME280;30157;55.512;37.764;2023-02-22T01:42:23;98802.34;;;-15.93;72.65
44198;BME280;30157;55.512;37.764;2023-02-22T01:47:53;98684.44;;;-16.67;72.66
44198;BME280;30157;55.512;37.764;2023-02-22T01:50:20;98827.34;;;-15.81;72.88
44198;BME280;30157;55.512;37.764;2023-02-22T01:52:46;98828.97;;;-15.82;73.14
44198;BME280;30157;55.512;37.764;2023-02-22T01:55:16;98802.56;;;-16.00;73.15
44198;BME280;30157;55.512;37.764;2023-02-22T01:57:45;98838.53;;;-15.86;72.80
44198;BME280;30157;55.512;37.764;2023-02-22T02:00:18;98793.50;;;-16.20;73.18
44198;BME280;30157;55.512;37.764;2023-02-22T02:02:49;98850.97;;;-15.86;73.73
44198;BME280;30157;55.512;37.764;2023-02-22T02:05:21;98816.13;;;-16.07;73.85
44198;BME280;30157;55.512;37.764;2023-02-22T02:07:49;98833.16;;;-16.01;73.91
44198;BME280;30157;55.512;37.764;2023-02-22T02:10:19;98842.75;;;-15.96;73.98
44198;BME280;30157;55.512;37.764;2023-02-22T02:12:48;98852.31;;;-15.90;73.77
44198;BME280;30157;55.512;37.764;2023-02-22T02:15:30;98853.94;;;-15.91;74.12
44198;BME280;30157;55.512;37.764;2023-02-22T02:17:59;98839.63;;;-16.03;73.82
44198;BME280;30157;55.512;37.764;2023-02-22T02:20:35;98849.59;;;-15.93;73.97
44198;BME280;30157;55.512;37.764;2023-02-22T02:23:21;98866.25;;;-15.92;74.34
44198;BME280;30157;55.512;37.764;2023-02-22T02:34:20;98871.56;;;-15.98;74.26
44198;BME280;30157;55.512;37.764;2023-02-22T02:37:46;98879.03;;;-15.98;74.17
44198;BME280;30157;55.512;37.764;2023-02-22T02:42:43;98854.00;;;-16.20;74.81
44198;BME280;30157;55.512;37.764;2023-02-22T02:45:23;98872.06;;;-16.12;74.12
44198;BME280;30157;55.512;37.764;2023-02-22T02:47:55;98892.47;;;-15.96;74.10
44198;BME280;30157;55.512;37.764;2023-02-22T02:50:32;98744.22;;;-16.85;74.12
44198;BME280;30157;55.512;37.764;2023-02-22T02:53:04;98899.78;;;-16.08;74.32
44198;BME280;30157;55.512;37.764;2023-02-22T02:55:33;98874.50;;;-16.23;74.42
44198;BME280;30157;55.512;37.764;2023-02-22T02:58:03;98905.75;;;-16.06;74.33
44198;BME280;30157;55.512;37.764;2023-02-22T03:00:36;98782.59;;;-16.81;74.42
44198;BME280;30157;55.512;37.764;2023-02-22T03:03:27;98912.31;;;-16.06;74.14
44198;BME280;30157;55.512;37.764;2023-02-22T03:06:20;98757.09;;;-16.99;74.25
44198;BME280;30157;55.512;37.764;2023-02-22T03:09:02;98909.81;;;-16.16;74.21
44198;BME280;30157;55.512;37.764;2023-02-22T03:17:41;98933.44;;;-16.11;74.02
44198;BME280;30157;55.512;37.764;2023-02-22T03:26:00;98799.97;;;-16.92;73.80
44198;BME280;30157;55.512;37.764;2023-02-22T03:28:31;98841.25;;;-16.73;73.96
44198;BME280;30157;55.512;37.764;2023-02-22T03:31:03;98925.22;;;-16.20;73.75
44198;BME280;30157;55.512;37.764;2023-02-22T03:33:45;98732.59;;;-17.34;73.50
44198;BME280;30157;55.512;37.764;2023-02-22T03:36:30;98955.47;;;-16.06;74.03
44198;BME280;30157;55.512;37.764;2023-02-22T03:38:59;98970.53;;;-16.04;74.00
44198;BME280;30157;55.512;37.764;2023-02-22T03:41:30;98845.44;;;-16.72;73.84
44198;BME280;30157;55.512;37.764;2023-02-22T03:44:02;98965.31;;;-16.07;74.00
44198;BME280;30157;55.512;37.764;2023-02-22T03:46:31;98960.34;;;-16.07;73.99
44198;BME280;30157;55.512;37.764;2023-02-22T03:49:03;98942.34;;;-16.24;73.66
44198;BME280;30157;55.512;37.764;2023-02-22T03:51:35;98907.19;;;-16.47;73.66
44198;BME280;30157;55.512;37.764;2023-02-22T03:54:03;98936.84;;;-16.30;73.85
44198;BME280;30157;55.512;37.764;2023-02-22T03:56:49;98820.78;;;-17.00;73.66
44198;BME280;30157;55.512;37.764;2023-02-22T03:59:20;98975.56;;;-16.13;73.82
44198;BME280;30157;55.512;37.764;2023-02-22T04:01:55;98969.66;;;-16.24;74.11
44198;BME280;30157;55.512;37.764;2023-02-22T04:04:22;98988.59;;;-16.15;74.14
44198;BME280;30157;55.512;37.764;2023-02-22T04:06:50;98985.25;;;-16.16;74.56
44198;BME280;30157;55.512;37.764;2023-02-22T04:09:17;98987.16;;;-16.32;74.06
44198;BME280;30157;55.512;37.764;2023-02-22T04:11:44;98972.88;;;-16.25;74.32
44198;BME280;30157;55.512;37.764;2023-02-22T04:14:11;98848.09;;;-17.00;73.95
44198;BME280;30157;55.512;37.764;2023-02-22T04:16:37;98990.84;;;-16.18;74.38
44198;BME280;30157;55.512;37.764;2023-02-22T04:19:06;98969.78;;;-16.32;73.65
44198;BME280;30157;55.512;37.764;2023-02-22T04:21:33;98958.13;;;-16.42;74.51
44198;BME280;30157;55.512;37.764;2023-02-22T04:24:00;98767.06;;;-17.56;74.37
44198;BME280;30157;55.512;37.764;2023-02-22T04:26:26;98864.56;;;-17.00;74.29
44198;BME280;30157;55.512;37.764;2023-02-22T04:28:55;99012.47;;;-16.17;74.18
44198;BME280;30157;55.512;37.764;2023-02-22T04:31:23;99015.34;;;-16.13;74.11
44198;BME280;30157;55.512;37.764;2023-02-22T04:33:50;99002.88;;;-16.23;74.59
44198;BME280;30157;55.512;37.764;2023-02-22T04:36:19;99029.78;;;-16.09;74.25
44198;BME280;30157;55.512;37.764;2023-02-22T04:38:48;99027.16;;;-16.10;74.26
44198;BME280;30157;55.512;37.764;2023-02-22T04:41:16;99004.81;;;-16.29;74.03
44198;BME280;30157;55.512;37.764;2023-02-22T04:43:41;99007.31;;;-16.29;74.62
44198;BME280;30157;55.512;37.764;2023-02-22T04:46:15;98949.28;;;-16.68;74.14
44198;BME280;30157;55.512;37.764;2023-02-22T04:48:41;99038.75;;;-16.11;73.75
44198;BME280;30157;55.512;37.764;2023-02-22T04:51:10;99045.47;;;-16.10;74.06
44198;BME280;30157;55.512;37.764;2023-02-22T04:53:39;98875.44;;;-17.09;73.52
44198;BME280;30157;55.512;37.764;2023-02-22T04:56:05;98961.06;;;-16.57;73.67
44198;BME280;30157;55.512;37.764;2023-02-22T04:58:30;98974.53;;;-16.44;73.92
44198;BME280;30157;55.512;37.764;2023-02-22T05:00:56;99049.75;;;-15.98;73.31
44198;BME280;30157;55.512;37.764;2023-02-22T05:03:23;99058.59;;;-15.92;73.45
44198;BME280;30157;55.512;37.764;2023-02-22T05:05:50;99015.88;;;-16.07;72.85
44198;BME280;30157;55.512;37.764;2023-02-22T05:08:16;99020.34;;;-15.83;72.69
44198;BME280;30157;55.512;37.764;2023-02-22T05:10:42;98989.50;;;-15.85;72.16
44198;BME280;30157;55.512;37.764;2023-02-22T05:13:07;99020.97;;;-15.36;71.78
44198;BME280;30157;55.512;37.764;2023-02-22T05:15:36;98966.19;;;-15.36;71.00
44198;BME280;30157;55.512;37.764;2023-02-22T05:18:01;99047.94;;;-14.60;70.20
44198;BME280;30157;55.512;37.764;2023-02-22T05:20:28;99067.38;;;-14.25;68.88
44198;BME280;30157;55.512;37.764;2023-02-22T05:22:55;99066.34;;;-14.16;67.66
44198;BME280;30157;55.512;37.764;2023-02-22T05:25:22;99066.47;;;-14.05;66.65
44198;BME280;30157;55.512;37.764;2023-02-22T05:27:53;98957.72;;;-14.56;66.47
44198;BME280;30157;55.512;37.764;2023-02-22T05:30:21;99074.81;;;-13.51;66.93
44198;BME280;30157;55.512;37.764;2023-02-22T05:32:49;99077.38;;;-13.17;65.30
44198;BME280;30157;55.512;37.764;2023-02-22T05:35:16;98904.81;;;-13.98;64.32
44198;BME280;30157;55.512;37.764;2023-02-22T05:37:41;99028.00;;;-13.09;63.32
44198;BME280;30157;55.512;37.764;2023-02-22T05:40:07;99094.06;;;-12.50;63.51
44198;BME280;30157;55.512;37.764;2023-02-22T05:42:33;99036.78;;;-12.46;62.16
44198;BME280;30157;55.512;37.764;2023-02-22T05:44:59;99079.78;;;-11.93;61.32
44198;BME280;30157;55.512;37.764;2023-02-22T05:47:25;98800.44;;;-13.36;60.42
44198;BME280;30157;55.512;37.764;2023-02-22T05:49:51;99080.56;;;-11.70;59.71
44198;BME280;30157;55.512;37.764;2023-02-22T05:52:17;99063.78;;;-11.71;58.23
44198;BME280;30157;55.512;37.764;2023-02-22T05:54:43;99081.44;;;-11.58;58.41
44198;BME280;30157;55.512;37.764;2023-02-22T05:57:08;98915.66;;;-12.62;57.39
44198;BME280;30157;55.512;37.764;2023-02-22T05:59:34;99089.38;;;-11.52;57.73
44198;BME280;30157;55.512;37.764;2023-02-22T06:02:00;99095.16;;;-11.29;56.59
44198;BME280;30157;55.512;37.764;2023-02-22T06:04:25;99069.69;;;-11.59;56.49
44198;BME280;30157;55.512;37.764;2023-02-22T06:06:52;99078.97;;;-11.09;56.96
44198;BME280;30157;55.512;37.764;2023-02-22T06:09:17;99094.47;;;-10.52;54.85
44198;BME280;30157;55.512;37.764;2023-02-22T06:11:43;99092.88;;;-10.25;54.29
44198;BME280;30157;55.512;37.764;2023-02-22T06:14:09;99075.56;;;-9.95;52.94
44198;BME280;30157;55.512;37.764;2023-02-22T06:16:34;99021.41;;;-9.91;52.82
44198;BME280;30157;55.512;37.764;2023-02-22T06:19:00;99094.78;;;-9.02;52.20
44198;BME280;30157;55.512;37.764;2023-02-22T06:21:26;99060.97;;;-8.64;50.67
44198;BME280;30157;55.512;37.764;2023-02-22T06:23:52;99087.22;;;-8.30;49.42
44198;BME280;30157;55.512;37.764;2023-02-22T06:26:18;98811.28;;;-9.77;48.51
44198;BME280;30157;55.512;37.764;2023-02-22T06:28:45;99069.44;;;-7.88;48.51
44198;BME280;30157;55.512;37.764;2023-02-22T06:31:11;99103.91;;;-7.43;47.55
44198;BME280;30157;55.512;37.764;2023-02-22T06:33:36;98989.41;;;-7.78;46.97
44198;BME280;30157;55.512;37.764;2023-02-22T06:36:02;99063.59;;;-7.26;45.47
44198;BME280;30157;55.512;37.764;2023-02-22T06:38:28;99025.97;;;-7.06;44.94
44198;BME280;30157;55.512;37.764;2023-02-22T06:40:54;99070.19;;;-6.97;44.83
44198;BME280;30157;55.512;37.764;2023-02-22T06:43:23;99108.03;;;-6.49;44.54
44198;BME280;30157;55.512;37.764;2023-02-22T06:45:50;99093.19;;;-7.07;44.35
44198;BME280;30157;55.512;37.764;2023-02-22T06:48:15;99114.16;;;-6.77;44.36
44198;BME280;30157;55.512;37.764;2023-02-22T06:50:41;99121.19;;;-7.02;43.18
44198;BME280;30157;55.512;37.764;2023-02-22T06:53:07;99114.75;;;-6.97;44.28
44198;BME280;30157;55.512;37.764;2023-02-22T06:55:34;99116.69;;;-7.08;43.63
44198;BME280;30157;55.512;37.764;2023-02-22T06:58:02;99080.13;;;-7.00;43.22
44198;BME280;30157;55.512;37.764;2023-02-22T07:00:30;99131.66;;;-6.30;43.28
44198;BME280;30157;55.512;37.764;2023-02-22T07:02:59;99117.00;;;-5.68;41.89
44198;BME280;30157;55.512;37.764;2023-02-22T07:05:26;99033.63;;;-6.55;41.47
44198;BME280;30157;55.512;37.764;2023-02-22T07:07:59;99118.50;;;-6.57;41.58
44198;BME280;30157;55.512;37.764;2023-02-22T07:10:29;99117.72;;;-6.73;41.95
44198;BME280;30157;55.512;37.764;2023-02-22T07:12:56;99132.78;;;-6.25;41.45
44198;BME280;30157;55.512;37.764;2023-02-22T07:15:23;99134.38;;;-6.27;41.03
44198;BME280;30157;55.512;37.764;2023-02-22T07:17:50;99130.09;;;-5.59;40.78
44198;BME280;30157;55.512;37.764;2023-02-22T07:20:20;99139.50;;;-5.38;39.66
44198;BME280;30157;55.512;37.764;2023-02-22T07:22:47;99142.09;;;-4.83;39.55
44198;BME280;30157;55.512;37.764;2023-02-22T07:25:13;99019.81;;;-5.00;38.02
44198;BME280;30157;55.512;37.764;2023-02-22T07:27:40;99140.44;;;-4.25;36.85
44198;BME280;30157;55.512;37.764;2023-02-22T07:30:30;99138.59;;;-4.67;37.63
44198;BME280;30157;55.512;37.764;2023-02-22T07:32:57;99147.78;;;-4.69;37.94
44198;BME280;30157;55.512;37.764;2023-02-22T07:37:51;99158.66;;;-4.90;38.25
44198;BME280;30157;55.512;37.764;2023-02-22T07:40:17;99152.59;;;-4.93;37.79
44198;BME280;30157;55.512;37.764;2023-02-22T07:45:29;99168.50;;;-4.20;37.35
44198;BME280;30157;55.512;37.764;2023-02-22T07:47:56;99128.25;;;-4.72;37.69
44198;BME280;30157;55.512;37.764;2023-02-22T07:50:23;98980.03;;;-5.78;36.88
44198;BME280;30157;55.512;37.764;2023-02-22T07:52:52;99108.66;;;-5.31;37.12
44198;BME280;30157;55.512;37.764;2023-02-22T07:55:20;99177.97;;;-4.92;37.88
44198;BME280;30157;55.512;37.764;2023-02-22T07:57:52;99076.34;;;-5.37;37.52
44198;BME280;30157;55.512;37.764;2023-02-22T08:00:32;99170.66;;;-4.85;37.09
44198;BME280;30157;55.512;37.764;2023-02-22T08:03:02;99183.75;;;-4.76;37.24
44198;BME280;30157;55.512;37.764;2023-02-22T08:05:30;99187.28;;;-4.73;37.12
44198;BME280;30157;55.512;37.764;2023-02-22T08:07:56;99185.56;;;-4.36;36.64
44198;BME280;30157;55.512;37.764;2023-02-22T08:10:23;99172.88;;;-4.16;36.40
44198;BME280;30157;55.512;37.764;2023-02-22T08:12:50;99147.94;;;-3.88;36.15
44198;BME280;30157;55.512;37.764;2023-02-22T08:15:21;99105.41;;;-3.93;35.21
44198;BME280;30157;55.512;37.764;2023-02-22T08:17:46;99177.75;;;-4.41;36.14
44198;BME280;30157;55.512;37.764;2023-02-22T08:20:12;99164.41;;;-3.97;35.83
44198;BME280;30157;55.512;37.764;2023-02-22T08:22:38;99098.75;;;-3.91;35.61
44198;BME280;30157;55.512;37.764;2023-02-22T08:25:05;99189.84;;;-3.13;34.88
44198;BME280;30157;55.512;37.764;2023-02-22T08:27:31;99205.44;;;-2.37;34.67
44198;BME280;30157;55.512;37.764;2023-02-22T08:29:58;99081.25;;;-2.75;33.24
44198;BME280;30157;55.512;37.764;2023-02-22T08:32:24;99207.41;;;-2.75;33.42
44198;BME280;30157;55.512;37.764;2023-02-22T08:34:49;99205.63;;;-2.55;33.94
44198;BME280;30157;55.512;37.764;2023-02-22T08:37:16;99209.75;;;-2.57;33.82
44198;BME280;30157;55.512;37.764;2023-02-22T08:39:42;99220.47;;;-2.43;33.53
44198;BME280;30157;55.512;37.764;2023-02-22T08:42:08;99209.66;;;-2.15;33.27
44198;BME280;30157;55.512;37.764;2023-02-22T08:44:35;99183.91;;;-2.70;33.06
44198;BME280;30157;55.512;37.764;2023-02-22T08:47:01;99217.19;;;-2.18;33.50
44198;BME280;30157;55.512;37.764;2023-02-22T08:49:27;99135.91;;;-2.39;32.58
44198;BME280;30157;55.512;37.764;2023-02-22T08:51:53;99223.13;;;-2.17;32.23
44198;BME280;30157;55.512;37.764;2023-02-22T08:54:18;99141.19;;;-3.45;33.37
44198;BME280;30157;55.512;37.764;2023-02-22T08:56:44;99041.88;;;-4.58;33.84
44198;BME280;30157;55.512;37.764;2023-02-22T08:59:10;99236.66;;;-3.27;34.25
44198;BME280;30157;55.512;37.764;2023-02-22T09:01:35;99128.41;;;-3.48;34.40
44198;BME280;30157;55.512;37.764;2023-02-22T09:04:01;99205.22;;;-2.43;33.86
44198;BME280;30157;55.512;37.764;2023-02-22T09:06:28;99198.72;;;-1.88;32.88
44198;BME280;30157;55.512;37.764;2023-02-22T09:08:54;99134.16;;;-2.16;31.65
44198;BME280;30157;55.512;37.764;2023-02-22T09:11:20;99133.50;;;-2.81;32.28
44198;BME280;30157;55.512;37.764;2023-02-22T09:13:46;99236.59;;;-2.87;33.35
44198;BME280;30157;55.512;37.764;2023-02-22T09:16:11;99245.34;;;-2.80;33.72
44198;BME280;30157;55.512;37.764;2023-02-22T09:18:37;99246.03;;;-2.61;34.36
44198;BME280;30157;55.512;37.764;2023-02-22T09:21:03;99239.66;;;-2.29;33.27
44198;BME280;30157;55.512;37.764;2023-02-22T09:23:29;99240.72;;;-2.67;33.80
44198;BME280;30157;55.512;37.764;2023-02-22T09:25:55;99252.53;;;-2.47;33.65
44198;BME280;30157;55.512;37.764;2023-02-22T09:28:21;99220.59;;;-2.40;34.02
44198;BME280;30157;55.512;37.764;2023-02-22T09:30:47;99246.41;;;-2.29;33.50
44198;BME280;30157;55.512;37.764;2023-02-22T09:33:17;99247.38;;;-2.26;33.99
44198;BME280;30157;55.512;37.764;2023-02-22T09:35:45;99226.66;;;-2.80;33.97
44198;BME280;30157;55.512;37.764;2023-02-22T09:38:14;99177.28;;;-3.93;35.31
44198;BME280;30157;55.512;37.764;2023-02-22T09:40:44;99204.78;;;-4.02;36.00
44198;BME280;30157;55.512;37.764;2023-02-22T09:48:58;99089.44;;;-5.46;36.44
44198;BME280;30157;55.512;37.764;2023-02-22T09:51:36;99259.16;;;-4.88;37.45
44198;BME280;30157;55.512;37.764;2023-02-22T09:54:12;99188.59;;;-5.69;38.49
44198;BME280;30157;55.512;37.764;2023-02-22T09:56:39;99164.97;;;-5.70;38.88
44198;BME280;30157;55.512;37.764;2023-02-22T09:59:10;99241.38;;;-5.07;38.60
44198;BME280;30157;55.512;37.764;2023-02-22T10:06:41;99270.63;;;-4.95;38.86
44198;BME280;30157;55.512;37.764;2023-02-22T10:09:12;99163.16;;;-5.72;39.01
44198;BME280;30157;55.512;37.764;2023-02-22T10:17:27;99274.09;;;-6.60;41.14
44198;BME280;30157;55.512;37.764;2023-02-22T10:25:39;99281.25;;;-6.67;42.27
44198;BME280;30157;55.512;37.764;2023-02-22T10:28:12;99280.44;;;-6.51;42.30
44198;BME280;30157;55.512;37.764;2023-02-22T10:31:02;99278.78;;;-6.34;41.33
44198;BME280;30157;55.512;37.764;2023-02-22T10:33:32;99166.53;;;-7.19;41.76
44198;BME280;30157;55.512;37.764;2023-02-22T10:36:01;99277.41;;;-6.61;41.82
44198;BME280;30157;55.512;37.764;2023-02-22T10:38:31;99283.38;;;-6.59;42.10
44198;BME280;30157;55.512;37.764;2023-02-22T10:41:02;99276.38;;;-6.48;42.16
44198;BME280;30157;55.512;37.764;2023-02-22T10:43:29;99281.66;;;-6.60;42.09
44198;BME280;30157;55.512;37.764;2023-02-22T10:45:58;99278.75;;;-6.51;42.30
44198;BME280;30157;55.512;37.764;2023-02-22T10:48:26;99263.25;;;-6.57;42.43
44198;BME280;30157;55.512;37.764;2023-02-22T10:50:59;99186.78;;;-7.02;42.29
44198;BME280;30157;55.512;37.764;2023-02-22T10:53:27;99251.44;;;-6.58;42.45
44198;BME280;30157;55.512;37.764;2023-02-22T10:56:32;99302.28;;;-6.20;42.37
44198;BME280;30157;55.512;37.764;2023-02-22T10:59:01;99298.81;;;-6.06;42.44
44198;BME280;30157;55.512;37.764;2023-02-22T11:04:09;99281.66;;;-6.28;42.03
44198;BME280;30157;55.512;37.764;2023-02-22T11:06:36;99303.69;;;-6.26;41.75
44198;BME280;30157;55.512;37.764;2023-02-22T11:09:17;99294.41;;;-6.42;41.88
44198;BME280;30157;55.512;37.764;2023-02-22T11:11:46;99214.94;;;-6.95;42.18
44198;BME280;30157;55.512;37.764;2023-02-22T11:14:24;99218.78;;;-7.01;42.75
44198;BME280;30157;55.512;37.764;2023-02-22T11:16:52;99306.31;;;-6.85;43.14
44198;BME280;30157;55.512;37.764;2023-02-22T11:19:23;99323.88;;;-6.72;43.43
44198;BME280;30157;55.512;37.764;2023-02-22T11:21:52;99312.81;;;-6.59;42.97
44198;BME280;30157;55.512;37.764;2023-02-22T11:24:21;99206.81;;;-7.35;42.47
44198;BME280;30157;55.512;37.764;2023-02-22T11:26:57;99268.78;;;-7.54;43.67
44198;BME280;30157;55.512;37.764;2023-02-22T11:29:29;99301.38;;;-7.57;43.64
44198;BME280;30157;55.512;37.764;2023-02-22T11:32:13;99200.38;;;-8.18;43.86
44198;BME280;30157;55.512;37.764;2023-02-22T11:34:45;99179.09;;;-8.23;43.83
44198;BME280;30157;55.512;37.764;2023-02-22T11:37:38;99320.56;;;-7.46;43.87
44198;BME280;30157;55.512;37.764;2023-02-22T11:42:32;99300.84;;;-7.66;44.30
44198;BME280;30157;55.512;37.764;2023-02-22T11:45:20;99325.16;;;-7.38;44.24
44198;BME280;30157;55.512;37.764;2023-02-22T11:47:59;99333.66;;;-7.51;44.11
44198;BME280;30157;55.512;37.764;2023-02-22T11:59:18;99345.63;;;-7.62;44.83
44198;BME280;30157;55.512;37.764;2023-02-22T12:01:54;99254.16;;;-8.31;45.12
44198;BME280;30157;55.512;37.764;2023-02-22T12:07:37;99357.47;;;-7.74;45.39
44198;BME280;30157;55.512;37.764;2023-02-22T12:13:06;99364.56;;;-7.82;45.67
44198;BME280;30157;55.512;37.764;2023-02-22T12:15:38;99367.16;;;-7.67;45.65
44198;BME280;30157;55.512;37.764;2023-02-22T12:21:05;99379.44;;;-8.00;45.50
44198;BME280;30157;55.512;37.764;2023-02-22T12:28:56;99389.94;;;-8.21;47.02
44198;BME280;30157;55.512;37.764;2023-02-22T12:31:29;99404.38;;;-8.18;47.16
44198;BME280;30157;55.512;37.764;2023-02-22T12:34:06;99279.50;;;-8.97;46.85
44198;BME280;30157;55.512;37.764;2023-02-22T12:36:50;99352.44;;;-8.43;47.09
44198;BME280;30157;55.512;37.764;2023-02-22T12:39:46;99237.53;;;-8.98;46.79
44198;BME280;30157;55.512;37.764;2023-02-22T12:42:19;99293.56;;;-8.60;46.91
44198;BME280;30157;55.512;37.764;2023-02-22T12:44:55;99276.41;;;-8.66;47.10
44198;BME280;30157;55.512;37.764;2023-02-22T12:47:25;99407.44;;;-7.96;46.69
44198;BME280;30157;55.512;37.764;2023-02-22T12:50:03;99396.13;;;-8.16;46.76
44198;BME280;30157;55.512;37.764;2023-02-22T12:57:55;99443.50;;;-8.50;48.23
44198;BME280;30157;55.512;37.764;2023-02-22T13:00:33;99418.13;;;-8.67;48.41
44198;BME280;30157;55.512;37.764;2023-02-22T13:06:03;99406.25;;;-8.95;48.30
44198;BME280;30157;55.512;37.764;2023-02-22T13:08:44;99312.81;;;-9.65;48.20
44198;BME280;30157;55.512;37.764;2023-02-22T13:11:30;99440.63;;;-8.82;48.62
44198;BME280;30157;55.512;37.764;2023-02-22T13:16:46;99310.81;;;-9.82;48.66
44198;BME280;30157;55.512;37.764;2023-02-22T13:19:42;99446.84;;;-9.02;48.85
44198;BME280;30157;55.512;37.764;2023-02-22T13:22:28;99454.59;;;-8.99;49.01
44198;BME280;30157;55.512;37.764;2023-02-22T13:27:54;99214.66;;;-10.43;49.91
44198;BME280;30157;55.512;37.764;2023-02-22T13:30:47;99458.59;;;-9.14;50.18
44198;BME280;30157;55.512;37.764;2023-02-22T13:36:01;99458.16;;;-9.46;50.61
44198;BME280;30157;55.512;37.764;2023-02-22T13:41:51;99424.09;;;-9.54;50.79
44198;BME280;30157;55.512;37.764;2023-02-22T13:57:38;99468.06;;;-9.35;51.65
44198;BME280;30157;55.512;37.764;2023-02-22T14:10:49;99345.97;;;-9.32;49.25
44198;BME280;30157;55.512;37.764;2023-02-22T14:13:18;99144.75;;;-10.51;49.66
44198;BME280;30157;55.512;37.764;2023-02-22T14:18:28;99482.38;;;-8.97;50.10
44198;BME280;30157;55.512;37.764;2023-02-22T14:21:08;99493.47;;;-9.07;50.34
44198;BME280;30157;55.512;37.764;2023-02-22T14:23:48;99486.56;;;-9.47;51.15
44198;BME280;30157;55.512;37.764;2023-02-22T14:26:29;99286.34;;;-10.59;51.12
44198;BME280;30157;55.512;37.764;2023-02-22T14:28:58;99492.56;;;-9.44;51.42
44198;BME280;30157;55.512;37.764;2023-02-22T14:39:45;99300.22;;;-11.57;53.16
44198;BME280;30157;55.512;37.764;2023-02-22T14:42:17;99349.28;;;-11.59;53.81
44198;BME280;30157;55.512;37.764;2023-02-22T14:47:18;99506.41;;;-11.02;55.21
44198;BME280;30157;55.512;37.764;2023-02-22T14:49:48;99511.44;;;-11.02;55.91
44198;BME280;30157;55.512;37.764;2023-02-22T14:52:20;99477.28;;;-11.34;55.42
44198;BME280;30157;55.512;37.764;2023-02-22T14:54:51;99523.91;;;-11.14;56.12
44198;BME280;30157;55.512;37.764;2023-02-22T14:57:27;99348.56;;;-12.25;56.24
44198;BME280;30157;55.512;37.764;2023-02-22T15:00:18;99365.94;;;-12.26;56.46
44198;BME280;30157;55.512;37.764;2023-02-22T15:02:49;99472.91;;;-11.59;56.66
44198;BME280;30157;55.512;37.764;2023-02-22T15:05:21;99526.88;;;-11.30;57.10
44198;BME280;30157;55.512;37.764;2023-02-22T15:07:58;99535.25;;;-11.29;56.51
44198;BME280;30157;55.512;37.764;2023-02-22T15:10:30;99521.25;;;-11.38;56.94
44198;BME280;30157;55.512;37.764;2023-02-22T15:13:05;99531.69;;;-11.43;57.26
44198;BME280;30157;55.512;37.764;2023-02-22T15:15:42;99484.88;;;-11.77;57.25
44198;BME280;30157;55.512;37.764;2023-02-22T15:18:28;99548.25;;;-11.45;57.87
44198;BME280;30157;55.512;37.764;2023-02-22T15:20:57;99548.88;;;-11.48;57.75